createdAt,value
2022-08-30T00:00:38.979Z,99.11
2022-08-30T00:03:09.101Z,99.15
2022-08-30T00:05:42.075Z,97.52
2022-08-30T00:08:14.334Z,96.12
2022-08-30T00:10:43.338Z,94.76
2022-08-30T00:13:14.767Z,93.72
2022-08-30T00:15:45.082Z,93.36
2022-08-30T00:18:13.017Z,92.36
2022-08-30T00:20:40.706Z,93.41
2022-08-30T00:23:09.714Z,94.12
2022-08-30T00:25:38.947Z,94.27
2022-08-30T00:28:09.904Z,96.83
2022-08-30T00:30:39.060Z,100.00
2022-08-30T00:33:08.492Z,100.00
2022-08-30T00:35:36.863Z,100.00
2022-08-30T00:38:09.995Z,100.00
2022-08-30T00:40:41.897Z,100.00
2022-08-30T00:43:19.302Z,100.00
2022-08-30T00:45:47.602Z,100.00
2022-08-30T00:48:16.766Z,100.00
2022-08-30T00:50:53.858Z,100.00
2022-08-30T00:53:28.533Z,100.00
2022-08-30T00:56:00.103Z,100.00
2022-08-30T00:58:32.504Z,100.00
2022-08-30T01:01:04.264Z,100.00
2022-08-30T01:03:37.159Z,100.00
2022-08-30T01:06:07.841Z,97.95
2022-08-30T01:08:36.752Z,95.83
2022-08-30T01:11:08.622Z,93.56
2022-08-30T01:13:38.021Z,92.56
2022-08-30T01:16:08.062Z,93.76
2022-08-30T01:18:37.748Z,92.24
2022-08-30T01:21:35.248Z,92.60
2022-08-30T01:24:04.899Z,93.87
2022-08-30T01:26:37.469Z,95.02
2022-08-30T01:29:09.260Z,94.93
2022-08-30T01:31:38.816Z,94.04
2022-08-30T01:34:08.478Z,94.31
2022-08-30T01:36:45.047Z,95.72
2022-08-30T01:39:18.339Z,94.18
2022-08-30T01:41:46.626Z,93.43
2022-08-30T01:44:16.091Z,94.60
2022-08-30T01:46:47.295Z,94.01
2022-08-30T01:49:27.780Z,94.27
2022-08-30T01:52:01.007Z,96.65
2022-08-30T01:54:38.244Z,98.85
2022-08-30T01:57:08.879Z,100.00
2022-08-30T01:59:41.219Z,99.09
2022-08-30T02:02:11.032Z,95.81
2022-08-30T02:04:40.401Z,96.04
2022-08-30T02:07:10.019Z,96.44
2022-08-30T02:09:39.052Z,94.96
2022-08-30T02:12:09.190Z,94.37
2022-08-30T02:14:39.032Z,94.18
2022-08-30T02:17:08.950Z,92.92
2022-08-30T02:19:39.214Z,92.67
2022-08-30T02:22:09.239Z,92.17
2022-08-30T02:24:39.330Z,92.70
2022-08-30T02:27:07.801Z,92.81
2022-08-30T02:29:36.412Z,91.10
2022-08-30T02:32:05.919Z,90.38
2022-08-30T02:34:34.354Z,90.13
2022-08-30T02:37:04.930Z,89.72
2022-08-30T02:39:33.898Z,89.77
2022-08-30T02:42:06.041Z,90.24
2022-08-30T02:44:34.571Z,89.55
2022-08-30T02:47:02.409Z,88.96
2022-08-30T02:49:33.846Z,87.56
2022-08-30T02:52:05.636Z,87.35
2022-08-30T02:54:37.685Z,88.22
2022-08-30T02:57:07.774Z,87.21
2022-08-30T02:59:49.623Z,86.04
2022-08-30T03:02:18.505Z,86.52
2022-08-30T03:04:46.412Z,87.10
2022-08-30T03:07:16.158Z,86.46
2022-08-30T03:09:44.837Z,86.19
2022-08-30T03:12:15.179Z,86.21
2022-08-30T03:14:43.305Z,88.13
2022-08-30T03:17:15.544Z,89.38
2022-08-30T03:19:46.441Z,90.27
2022-08-30T03:22:15.221Z,91.23
2022-08-30T03:24:43.794Z,91.18
2022-08-30T03:27:13.099Z,90.93
2022-08-30T03:29:42.183Z,90.68
2022-08-30T03:32:10.603Z,92.38
2022-08-30T03:34:41.225Z,93.39
2022-08-30T03:37:09.405Z,93.78
2022-08-30T03:39:39.132Z,94.51
2022-08-30T03:42:07.936Z,95.40
2022-08-30T03:44:38.447Z,95.76
2022-08-30T03:47:09.748Z,95.39
2022-08-30T03:49:42.627Z,95.20
2022-08-30T03:52:11.426Z,95.64
2022-08-30T03:54:43.110Z,95.44
2022-08-30T03:57:19.647Z,93.77
2022-08-30T03:59:49.670Z,89.70
2022-08-30T04:02:18.563Z,88.96
2022-08-30T04:04:47.956Z,88.48
2022-08-30T04:07:16.836Z,86.89
2022-08-30T04:09:46.559Z,86.17
2022-08-30T04:12:14.544Z,85.78
2022-08-30T04:14:49.946Z,85.89
2022-08-30T04:17:18.404Z,86.09
2022-08-30T04:19:47.386Z,87.32
2022-08-30T04:22:16.642Z,88.07
2022-08-30T04:24:52.986Z,89.50
2022-08-30T04:27:21.488Z,90.67
2022-08-30T04:29:49.502Z,88.63
2022-08-30T04:32:18.478Z,86.46
2022-08-30T04:34:46.377Z,84.76
2022-08-30T04:37:18.772Z,83.35
2022-08-30T04:39:49.123Z,82.74
2022-08-30T04:42:18.810Z,82.39
2022-08-30T04:44:47.403Z,82.65
2022-08-30T04:47:16.337Z,82.66
2022-08-30T04:49:44.900Z,86.65
2022-08-30T04:52:14.904Z,87.39
2022-08-30T04:54:43.940Z,88.41
2022-08-30T04:57:12.402Z,89.30
2022-08-30T04:59:41.407Z,90.12
2022-08-30T05:02:13.201Z,89.70
2022-08-30T05:05:03.374Z,89.15
2022-08-30T05:07:33.380Z,88.47
2022-08-30T05:10:01.946Z,89.08
2022-08-30T05:12:31.272Z,89.32
2022-08-30T05:15:00.410Z,90.31
2022-08-30T05:17:28.629Z,90.80
2022-08-30T05:19:56.514Z,90.47
2022-08-30T05:22:24.430Z,90.68
2022-08-30T05:24:53.754Z,89.79
2022-08-30T05:27:22.368Z,88.77
2022-08-30T05:29:50.457Z,89.11
2022-08-30T05:32:19.792Z,86.93
2022-08-30T05:34:49.371Z,87.25
2022-08-30T05:37:21.519Z,87.59
2022-08-30T05:39:51.646Z,85.57
2022-08-30T05:42:20.569Z,84.53
2022-08-30T05:44:54.311Z,82.64
2022-08-30T05:47:25.418Z,81.52
2022-08-30T05:49:54.519Z,82.31
2022-08-30T05:52:22.675Z,80.43
2022-08-30T05:54:59.457Z,78.48
2022-08-30T05:57:27.433Z,77.31
2022-08-30T05:59:56.489Z,77.25
2022-08-30T06:02:24.517Z,76.52
2022-08-30T06:04:54.345Z,76.19
2022-08-30T06:07:22.994Z,76.73
2022-08-30T06:09:51.774Z,76.61
2022-08-30T06:12:22.441Z,76.35
2022-08-30T06:14:51.510Z,74.80
2022-08-30T06:17:22.042Z,74.39
2022-08-30T06:19:51.672Z,71.33
2022-08-30T06:22:21.866Z,68.07
2022-08-30T06:24:58.078Z,69.32
2022-08-30T06:27:26.342Z,70.38
2022-08-30T06:29:54.234Z,71.17
2022-08-30T06:32:21.929Z,70.24
2022-08-30T06:34:50.488Z,70.06
2022-08-30T06:37:25.590Z,70.27
2022-08-30T06:40:00.487Z,69.56
2022-08-30T06:42:32.417Z,69.01
2022-08-30T06:45:02.032Z,70.21
2022-08-30T06:47:30.917Z,68.78
2022-08-30T06:49:59.470Z,69.52
2022-08-30T06:52:27.382Z,69.44
2022-08-30T06:54:59.792Z,69.72
2022-08-30T06:57:27.656Z,68.07
2022-08-30T06:59:58.756Z,67.71
2022-08-30T07:02:27.127Z,67.99
2022-08-30T07:04:55.083Z,68.34
2022-08-30T07:07:23.489Z,68.71
2022-08-30T07:09:54.141Z,63.50
2022-08-30T07:12:22.553Z,60.70
2022-08-30T07:14:50.743Z,57.30
2022-08-30T07:17:37.111Z,56.31
2022-08-30T07:20:06.163Z,57.16
2022-08-30T07:22:34.401Z,57.27
2022-08-30T07:25:02.421Z,54.79
2022-08-30T07:27:32.007Z,52.85
2022-08-30T07:30:01.382Z,52.08
2022-08-30T07:32:29.507Z,50.17
2022-08-30T07:34:57.469Z,49.84
2022-08-30T07:37:25.791Z,50.99
2022-08-30T07:39:54.510Z,51.68
2022-08-30T07:42:22.490Z,50.69
2022-08-30T07:44:53.625Z,50.38
2022-08-30T07:47:24.021Z,51.46
2022-08-30T07:49:51.918Z,51.25
2022-08-30T07:52:19.681Z,49.84
2022-08-30T07:54:47.420Z,50.98
2022-08-30T07:57:20.658Z,51.26
2022-08-30T07:59:48.442Z,50.18
2022-08-30T08:02:16.318Z,45.74
2022-08-30T08:04:44.863Z,48.06
2022-08-30T08:07:12.985Z,48.49
2022-08-30T08:09:40.851Z,47.86
2022-08-30T08:12:09.164Z,41.24
2022-08-30T08:14:37.520Z,43.25
2022-08-30T08:17:06.357Z,44.25
2022-08-30T08:19:34.206Z,43.73
2022-08-30T08:22:20.546Z,44.63
2022-08-30T08:24:50.482Z,39.69
2022-08-30T08:27:18.461Z,41.00
2022-08-30T08:29:46.464Z,39.33
2022-08-30T08:32:15.221Z,37.52
2022-08-30T08:34:43.128Z,37.85
2022-08-30T08:37:11.105Z,36.70
2022-08-30T08:39:38.885Z,36.94
2022-08-30T08:42:36.524Z,37.42
2022-08-30T08:45:13.367Z,35.73
2022-08-30T08:48:01.395Z,34.93
2022-08-30T08:50:32.734Z,31.97
2022-08-30T08:53:50.165Z,33.62
2022-08-30T08:56:20.329Z,34.57
2022-08-30T08:58:51.906Z,35.52
2022-08-30T09:01:26.778Z,36.38
2022-08-30T09:03:57.716Z,36.05
2022-08-30T09:06:25.703Z,37.07
2022-08-30T09:08:53.784Z,36.03
2022-08-30T09:11:27.913Z,33.78
2022-08-30T09:13:56.441Z,30.83
2022-08-30T09:16:47.664Z,32.31
2022-08-30T09:19:44.248Z,30.99
2022-08-30T09:22:38.242Z,31.94
2022-08-30T09:25:23.025Z,30.42
2022-08-30T09:27:53.827Z,29.14
2022-08-30T09:30:30.117Z,29.39
2022-08-30T09:33:06.067Z,29.93
2022-08-30T09:35:44.694Z,28.71
2022-08-30T09:38:34.215Z,27.97
2022-08-30T09:41:42.900Z,28.97
2022-08-30T09:44:10.910Z,29.89
2022-08-30T09:46:51.246Z,29.76
2022-08-30T09:49:28.976Z,30.20
2022-08-30T09:52:18.608Z,29.47
2022-08-30T09:54:55.304Z,29.34
2022-08-30T09:57:58.735Z,29.60
2022-08-30T10:00:29.490Z,28.46
2022-08-30T10:03:35.357Z,29.07
2022-08-30T10:06:04.067Z,28.76
2022-08-30T10:08:51.322Z,29.43
2022-08-30T10:11:22.253Z,28.82
2022-08-30T10:14:08.781Z,27.42
2022-08-30T10:17:13.927Z,26.59
2022-08-30T10:20:12.930Z,25.14
2022-08-30T10:22:48.152Z,24.24
2022-08-30T10:25:27.345Z,25.45
2022-08-30T10:28:04.181Z,25.14
2022-08-30T10:30:36.546Z,24.85
2022-08-30T10:33:19.039Z,25.08
2022-08-30T10:35:57.882Z,25.46
2022-08-30T10:38:38.137Z,24.43
2022-08-30T10:41:29.811Z,25.52
2022-08-30T10:44:29.650Z,24.87
2022-08-30T10:47:23.207Z,25.80
2022-08-30T10:50:03.728Z,24.38
2022-08-30T10:53:02.376Z,25.03
2022-08-30T10:55:49.377Z,25.31
2022-08-30T10:58:19.370Z,24.89
2022-08-30T11:01:12.684Z,26.11
2022-08-30T11:04:17.904Z,26.34
2022-08-30T11:07:16.509Z,26.12
2022-08-30T11:10:16.866Z,26.07
2022-08-30T11:13:10.058Z,26.25
2022-08-30T11:15:57.741Z,26.14
2022-08-30T11:18:26.636Z,25.49
2022-08-30T11:21:41.728Z,26.71
2022-08-30T11:24:31.149Z,25.81
2022-08-30T11:27:01.708Z,26.22
2022-08-30T11:29:43.962Z,27.27
2022-08-30T11:32:17.471Z,26.80
2022-08-30T11:34:47.558Z,26.36
2022-08-30T11:37:37.817Z,26.58
2022-08-30T11:40:22.595Z,26.50
2022-08-30T11:43:40.514Z,27.20
2022-08-30T11:46:19.832Z,26.48
2022-08-30T11:48:54.277Z,25.86
2022-08-30T11:51:50.834Z,26.73
2022-08-30T11:54:52.751Z,26.56
2022-08-30T11:57:32.383Z,26.42
2022-08-30T12:00:41.728Z,26.61
2022-08-30T12:03:33.458Z,25.93
2022-08-30T12:06:08.499Z,25.76
2022-08-30T12:08:48.403Z,25.95
2022-08-30T12:11:17.223Z,25.96
2022-08-30T12:13:46.426Z,25.19
2022-08-30T12:16:25.314Z,25.28
2022-08-30T12:19:01.214Z,25.41
2022-08-30T12:21:44.174Z,25.12
2022-08-30T12:24:26.547Z,23.95
2022-08-30T12:26:55.192Z,24.51
2022-08-30T12:29:26.909Z,22.99
2022-08-30T12:32:03.339Z,23.51
2022-08-30T12:34:43.682Z,23.10
2022-08-30T12:37:37.318Z,22.93
2022-08-30T12:40:22.548Z,22.76
2022-08-30T12:43:04.592Z,22.27
2022-08-30T12:45:43.191Z,22.45
2022-08-30T12:48:17.753Z,21.91
2022-08-30T12:50:55.186Z,20.99
2022-08-30T12:53:31.565Z,20.48
2022-08-30T12:56:08.747Z,20.80
2022-08-30T12:58:48.027Z,20.95
2022-08-30T13:01:19.022Z,20.54
2022-08-30T13:04:14.336Z,20.93
2022-08-30T13:07:02.315Z,20.91
2022-08-30T13:09:32.677Z,20.75
2022-08-30T13:12:22.100Z,19.23
2022-08-30T13:14:50.199Z,20.27
2022-08-30T13:17:30.531Z,20.38
2022-08-30T13:20:21.457Z,20.23
2022-08-30T13:23:09.997Z,20.66
2022-08-30T13:25:39.834Z,20.93
2022-08-30T13:28:08.801Z,20.86
2022-08-30T13:30:36.879Z,19.83
2022-08-30T13:33:04.909Z,19.80
2022-08-30T13:35:34.418Z,21.09
2022-08-30T13:38:02.902Z,20.59
2022-08-30T13:40:31.195Z,20.63
2022-08-30T13:42:58.979Z,20.49
2022-08-30T13:45:42.857Z,20.96
2022-08-30T13:48:12.026Z,20.88
2022-08-30T13:50:41.393Z,20.43
2022-08-30T13:53:10.085Z,20.22
2022-08-30T13:55:41.892Z,19.97
2022-08-30T13:58:10.674Z,20.47
2022-08-30T14:00:41.895Z,20.14
2022-08-30T14:03:11.492Z,20.42
2022-08-30T14:05:50.116Z,20.85
2022-08-30T14:08:45.287Z,21.05
2022-08-30T14:11:18.683Z,21.95
2022-08-30T14:16:43.637Z,23.46
2022-08-30T14:19:14.214Z,23.12
2022-08-30T14:21:43.120Z,23.23
2022-08-30T14:24:15.534Z,24.12
2022-08-30T14:26:51.627Z,24.24
2022-08-30T14:29:30.196Z,26.23
2022-08-30T14:31:59.973Z,26.12
2022-08-30T14:34:27.925Z,26.90
2022-08-30T14:36:56.680Z,27.91
2022-08-30T14:39:26.313Z,28.73
2022-08-30T14:41:55.798Z,29.46
2022-08-30T14:44:24.964Z,30.78
2022-08-30T14:46:53.326Z,31.36
2022-08-30T14:49:21.508Z,32.18
2022-08-30T14:51:50.247Z,32.87
2022-08-30T14:54:23.421Z,32.80
2022-08-30T14:56:56.087Z,33.18
2022-08-30T14:59:25.820Z,33.72
2022-08-30T15:01:54.472Z,34.06
2022-08-30T15:04:24.413Z,34.04
2022-08-30T15:06:53.636Z,34.00
2022-08-30T15:09:23.944Z,33.62
2022-08-30T15:11:55.306Z,34.22
2022-08-30T15:14:29.209Z,34.61
2022-08-30T15:16:58.540Z,35.60
2022-08-30T15:19:26.730Z,35.69
2022-08-30T15:21:55.389Z,35.74
2022-08-30T15:24:29.623Z,35.04
2022-08-30T15:27:00.593Z,34.83
2022-08-30T15:29:30.408Z,34.42
2022-08-30T15:32:01.937Z,34.09
2022-08-30T15:34:31.854Z,33.45
2022-08-30T15:37:00.411Z,34.89
2022-08-30T15:39:29.142Z,34.66
2022-08-30T15:42:01.284Z,36.21
2022-08-30T15:44:32.606Z,36.60
2022-08-30T15:47:02.619Z,36.83
2022-08-30T15:49:30.477Z,37.78
2022-08-30T15:52:02.135Z,38.44
2022-08-30T15:54:31.491Z,38.67
2022-08-30T15:57:01.331Z,39.59
2022-08-30T15:59:31.281Z,39.86
2022-08-30T16:01:59.487Z,39.83
2022-08-30T16:04:27.939Z,40.71
2022-08-30T16:06:56.254Z,40.56
2022-08-30T16:09:32.363Z,40.67
2022-08-30T16:12:23.357Z,40.76
2022-08-30T16:14:52.090Z,40.62
2022-08-30T16:17:20.269Z,40.91
2022-08-30T16:19:48.155Z,39.98
2022-08-30T16:22:22.219Z,39.43
2022-08-30T16:24:50.382Z,40.28
2022-08-30T16:27:18.414Z,41.18
2022-08-30T16:29:50.090Z,41.59
2022-08-30T16:32:18.578Z,42.96
2022-08-30T16:34:47.626Z,43.81
2022-08-30T16:37:15.696Z,44.21
2022-08-30T16:39:46.393Z,44.23
2022-08-30T16:42:21.008Z,44.32
2022-08-30T16:44:51.223Z,44.77
2022-08-30T16:47:20.377Z,44.81
2022-08-30T16:49:48.099Z,46.29
2022-08-30T16:52:16.329Z,46.67
2022-08-30T16:54:52.116Z,47.34
2022-08-30T16:57:20.367Z,47.95
2022-08-30T16:59:50.908Z,48.96
2022-08-30T17:02:22.877Z,48.99
2022-08-30T17:04:53.076Z,49.62
2022-08-30T17:07:22.657Z,48.92
2022-08-30T17:09:51.463Z,50.24
2022-08-30T17:12:21.246Z,50.59
2022-08-30T17:14:50.744Z,48.92
2022-08-30T17:17:19.328Z,48.37
2022-08-30T17:19:50.126Z,48.79
2022-08-30T17:22:18.390Z,48.81
2022-08-30T17:24:52.337Z,48.74
2022-08-30T17:27:22.604Z,49.13
2022-08-30T17:29:51.303Z,49.32
2022-08-30T17:32:21.620Z,50.26
2022-08-30T17:37:49.261Z,49.00
2022-08-30T17:40:20.777Z,50.18
2022-08-30T17:42:49.753Z,50.42
2022-08-30T17:45:17.906Z,50.50
2022-08-30T17:47:48.164Z,51.81
2022-08-30T17:50:16.503Z,52.08
2022-08-30T17:52:51.372Z,51.64
2022-08-30T17:55:22.428Z,50.81
2022-08-30T17:57:50.910Z,52.97
2022-08-30T18:00:20.305Z,53.63
2022-08-30T18:02:49.725Z,54.98
2022-08-30T18:05:17.842Z,53.72
2022-08-30T18:07:54.147Z,53.37
2022-08-30T18:10:30.527Z,58.91
2022-08-30T18:13:06.087Z,64.14
2022-08-30T18:15:36.398Z,62.65
2022-08-30T18:18:07.114Z,60.79
2022-08-30T18:20:39.848Z,62.09
2022-08-30T18:23:12.184Z,60.71
2022-08-30T18:25:42.911Z,57.50
2022-08-30T18:28:12.509Z,56.46
2022-08-30T18:33:51.039Z,52.20
2022-08-30T18:36:21.232Z,52.14
2022-08-30T18:38:50.010Z,51.35
2022-08-30T18:41:18.089Z,51.14
2022-08-30T18:43:48.167Z,51.13
2022-08-30T18:46:25.657Z,51.00
2022-08-30T18:48:56.045Z,50.94
2022-08-30T18:51:31.140Z,51.11
2022-08-30T18:54:03.723Z,51.87
2022-08-30T18:56:33.270Z,51.45
2022-08-30T18:59:03.009Z,51.94
2022-08-30T19:01:48.741Z,52.51
2022-08-30T19:04:29.664Z,54.97
2022-08-30T19:28:46.733Z,58.49
2022-08-30T19:31:18.895Z,59.00
2022-08-30T19:33:56.884Z,58.57
2022-08-30T19:36:34.470Z,59.13
2022-08-30T19:54:19.047Z,62.10
2022-08-30T19:56:48.273Z,60.90
2022-08-30T19:59:18.229Z,60.71
2022-08-30T20:01:46.754Z,62.08
2022-08-30T20:04:16.051Z,63.39
2022-08-30T20:06:46.401Z,62.43
2022-08-30T20:09:15.413Z,64.74
2022-08-30T20:11:44.570Z,63.38
2022-08-30T20:14:13.739Z,62.05
2022-08-30T20:16:42.249Z,63.25
2022-08-30T20:19:16.166Z,64.76
2022-08-30T20:21:46.413Z,65.24
2022-08-30T20:24:16.168Z,65.97
2022-08-30T20:26:45.342Z,64.23
2022-08-30T20:29:13.995Z,65.11
2022-08-30T20:31:42.805Z,64.89
2022-08-30T20:34:12.189Z,63.68
2022-08-30T20:36:41.340Z,62.81
2022-08-30T20:39:10.508Z,62.57
2022-08-30T20:41:46.324Z,63.08
2022-08-30T20:44:18.622Z,62.74
2022-08-30T20:46:48.406Z,62.89
2022-08-30T20:49:17.852Z,63.84
2022-08-30T20:51:49.628Z,62.92
2022-08-30T20:54:24.556Z,62.54
2022-08-30T20:56:55.797Z,64.32
2022-08-30T20:59:27.886Z,64.89
2022-08-30T21:02:07.901Z,63.58
2022-08-30T21:04:39.361Z,63.30
2022-08-30T21:07:08.059Z,63.28
2022-08-30T21:09:38.755Z,65.36
2022-08-30T21:12:07.252Z,66.34
2022-08-30T21:14:38.325Z,65.24
2022-08-30T21:17:08.163Z,67.53
2022-08-30T21:19:42.023Z,66.29
2022-08-30T21:22:13.896Z,65.55
2022-08-30T21:24:43.414Z,67.74
2022-08-30T21:27:13.117Z,66.91
2022-08-30T21:29:42.018Z,68.18
2022-08-30T21:32:10.635Z,68.88
2022-08-30T21:34:59.668Z,68.72
2022-08-30T21:37:31.979Z,67.81
2022-08-30T21:40:08.359Z,68.35
2022-08-30T21:42:40.752Z,69.86
2022-08-30T21:45:10.833Z,69.94
2022-08-30T21:47:40.032Z,70.13
2022-08-30T21:50:14.609Z,70.17
2022-08-30T21:52:43.965Z,71.10
2022-08-30T21:55:13.229Z,70.56
2022-08-30T21:57:42.195Z,70.05
2022-08-30T22:00:19.521Z,74.10
2022-08-30T22:02:49.191Z,76.33
2022-08-30T22:05:23.644Z,77.94
2022-08-30T22:07:53.032Z,78.39
2022-08-30T22:10:28.105Z,78.43
2022-08-30T22:12:59.025Z,75.55
2022-08-30T22:15:28.058Z,71.71
2022-08-30T22:17:57.807Z,67.54
2022-08-30T22:20:30.376Z,66.92
2022-08-30T22:22:59.723Z,66.29
2022-08-30T22:25:29.271Z,65.72
2022-08-30T22:27:58.073Z,64.88
2022-08-30T22:30:29.175Z,64.30
2022-08-30T22:32:59.937Z,64.07
2022-08-30T22:35:28.501Z,63.65
2022-08-30T22:37:59.387Z,63.57
2022-08-30T22:40:29.441Z,63.55
2022-08-30T22:43:01.162Z,63.14
2022-08-30T22:45:31.698Z,63.58
2022-08-30T22:48:03.753Z,63.18
2022-08-30T22:50:44.133Z,63.15
2022-08-30T22:53:24.962Z,63.39
2022-08-30T22:55:59.919Z,63.91
2022-08-30T22:58:33.501Z,64.13
2022-08-30T23:01:04.296Z,64.14
2022-08-30T23:03:35.259Z,63.75
2022-08-30T23:06:07.024Z,63.88
2022-08-30T23:08:37.304Z,63.67
2022-08-30T23:11:11.530Z,63.52
2022-08-30T23:13:40.797Z,65.75
2022-08-30T23:16:11.262Z,65.04
2022-08-30T23:18:42.909Z,65.04
2022-08-30T23:21:24.476Z,65.40
2022-08-30T23:24:15.198Z,67.40
2022-08-30T23:27:06.655Z,66.30
2022-08-30T23:29:56.446Z,67.06
2022-08-30T23:32:45.349Z,68.66
2022-08-30T23:35:33.519Z,68.12
2022-08-30T23:38:25.051Z,67.57
2022-08-30T23:41:12.257Z,67.58
2022-08-30T23:44:04.257Z,68.83
2022-08-30T23:46:51.490Z,70.13
2022-08-30T23:49:39.431Z,71.43
2022-08-30T23:52:27.582Z,71.58
2022-08-30T23:55:14.589Z,71.89
2022-08-30T23:58:06.729Z,71.48
